This is the latest recevied weather packets stored in our database for station/object W4SKW. If no packets are shown the sender has not sent any weather packets the latest 10 day(s).
| Time | Temp. | Humidity | Pressure | Rain* | Wind** | Luminosity | Snow |
|---|---|---|---|---|---|---|---|
| 1777924077 | 26.11° C | 45% | 1015.7 hPa | 0 mm | - | 633 W/m² | - |
| 1777923773 | 25.56° C | 50% | 1015.8 hPa | 0 mm | - | 697 W/m² | - |
| 1777923469 | 26.11° C | 49% | 1015.6 hPa | 0 mm | - | 671 W/m² | - |
| 1777923167 | 26.67° C | 46% | 1015.8 hPa | 0 mm | - | 662 W/m² | - |
| 1777922865 | 26.11° C | 43% | 1015.9 hPa | 0 mm | - | 701 W/m² | - |
| 1777922563 | 25.56° C | 46% | 1015.9 hPa | 0 mm | - | 720 W/m² | - |
| 1777922262 | 26.11° C | 46% | 1016.2 hPa | 0 mm | - | 686 W/m² | - |
| 1777921958 | 26.11° C | 46% | 1016.2 hPa | 0 mm | - | 686 W/m² | - |
| 1777921654 | 25.56° C | 47% | 1016.2 hPa | 0 mm | - | 713 W/m² | - |
| 1777921350 | 25.56° C | 48% | 1016.3 hPa | 0 mm | - | 765 W/m² | - |
| 1777921047 | 25° C | 46% | 1016.4 hPa | 0 mm | - | 749 W/m² | - |
| 1777920744 | 25° C | 53% | 1016.5 hPa | 0 mm | - | 700 W/m² | - |
| 1777920440 | 25° C | 46% | 1016.7 hPa | 0 mm | - | 763 W/m² | - |
| 1777920136 | 25° C | 46% | 1016.7 hPa | 0 mm | - | 763 W/m² | - |
| 1777919832 | 25° C | 45% | 1016.5 hPa | 0 mm | - | 695 W/m² | - |
| 1777919529 | 25° C | 49% | 1016.6 hPa | 0 mm | - | 764 W/m² | - |
| 1777919227 | 25° C | 45% | 1016.7 hPa | 0 mm | - | 676 W/m² | - |
| 1777918924 | 25.56° C | 50% | 1016.9 hPa | 0 mm | - | 581 W/m² | - |
| 1777918621 | 25° C | 46% | 1016.7 hPa | 0 mm | - | 803 W/m² | - |
| 1777918319 | 25° C | 46% | 1016.7 hPa | 0 mm | - | 803 W/m² | - |
| 1777918018 | 23.89° C | 54% | 1016.9 hPa | 0 mm | - | 593 W/m² | - |
| 1777917716 | 23.89° C | 54% | 1016.9 hPa | 0 mm | - | 593 W/m² | - |
| 1777917413 | 24.44° C | 47% | 1016.9 hPa | 0 mm | - | 779 W/m² | - |
| 1777917109 | 23.89° C | 47% | 1017.3 hPa | 0 mm | - | 780 W/m² | - |
| 1777916808 | 23.89° C | 49% | 1017 hPa | 0 mm | - | 782 W/m² | - |
* Rain latest hour (hover to see other rain measurements)
** Current wind speed in m/s (hover to see current wind gust speed)